sensor_id;sensor_type;location;lat;lon;timestamp;pressure;altitude;pressure_sealevel;temperature;humidity
10115;BME280;5097;43.260;27.812;2023-05-19T00:02:30;99862.31;;;15.11;73.11
10115;BME280;5097;43.260;27.812;2023-05-19T00:05:18;99864.59;;;15.04;72.99
10115;BME280;5097;43.260;27.812;2023-05-19T00:08:02;99863.81;;;15.26;71.64
10115;BME280;5097;43.260;27.812;2023-05-19T00:10:47;99860.41;;;15.13;71.81
10115;BME280;5097;43.260;27.812;2023-05-19T00:13:31;99862.81;;;15.16;71.29
10115;BME280;5097;43.260;27.812;2023-05-19T00:16:16;99864.03;;;15.12;70.87
10115;BME280;5097;43.260;27.812;2023-05-19T00:19:01;99862.59;;;15.30;69.67
10115;BME280;5097;43.260;27.812;2023-05-19T00:21:47;99867.22;;;15.39;68.47
10115;BME280;5097;43.260;27.812;2023-05-19T00:24:31;99866.97;;;15.42;68.40
10115;BME280;5097;43.260;27.812;2023-05-19T00:27:15;99873.16;;;15.66;67.41
10115;BME280;5097;43.260;27.812;2023-05-19T00:29:59;99866.00;;;15.55;67.16
10115;BME280;5097;43.260;27.812;2023-05-19T00:32:45;99870.97;;;15.48;67.27
10115;BME280;5097;43.260;27.812;2023-05-19T00:35:29;99877.41;;;15.68;66.33
10115;BME280;5097;43.260;27.812;2023-05-19T00:38:14;99871.09;;;15.35;67.43
10115;BME280;5097;43.260;27.812;2023-05-19T00:40:59;99877.13;;;15.26;67.88
10115;BME280;5097;43.260;27.812;2023-05-19T00:43:43;99851.53;;;15.01;68.69
10115;BME280;5097;43.260;27.812;2023-05-19T00:46:27;99875.13;;;15.05;69.42
10115;BME280;5097;43.260;27.812;2023-05-19T00:49:11;99854.06;;;15.02;69.60
10115;BME280;5097;43.260;27.812;2023-05-19T00:51:55;99876.06;;;14.93;71.05
10115;BME280;5097;43.260;27.812;2023-05-19T00:54:42;99877.31;;;15.00;71.35
10115;BME280;5097;43.260;27.812;2023-05-19T00:57:27;99887.84;;;14.53;73.32
10115;BME280;5097;43.260;27.812;2023-05-19T01:00:12;99884.97;;;14.44;74.18
10115;BME280;5097;43.260;27.812;2023-05-19T01:02:56;99885.63;;;14.47;73.92
10115;BME280;5097;43.260;27.812;2023-05-19T01:05:41;99888.75;;;14.65;73.47
10115;BME280;5097;43.260;27.812;2023-05-19T01:08:26;99883.19;;;14.44;74.49
10115;BME280;5097;43.260;27.812;2023-05-19T01:11:14;99891.78;;;14.48;74.32
10115;BME280;5097;43.260;27.812;2023-05-19T01:13:58;99887.13;;;14.38;74.75
10115;BME280;5097;43.260;27.812;2023-05-19T01:16:46;99873.91;;;14.50;73.74
10115;BME280;5097;43.260;27.812;2023-05-19T01:19:48;99889.34;;;14.45;74.38
10115;BME280;5097;43.260;27.812;2023-05-19T01:22:50;99888.03;;;14.50;74.64
10115;BME280;5097;43.260;27.812;2023-05-19T01:29:22;99892.03;;;14.32;76.40
10115;BME280;5097;43.260;27.812;2023-05-19T01:32:14;99889.72;;;14.27;77.47
10115;BME280;5097;43.260;27.812;2023-05-19T01:35:03;99891.63;;;14.25;78.47
10115;BME280;5097;43.260;27.812;2023-05-19T01:37:49;99888.25;;;14.23;79.23
10115;BME280;5097;43.260;27.812;2023-05-19T01:40:34;99893.16;;;14.16;80.25
10115;BME280;5097;43.260;27.812;2023-05-19T01:43:21;99897.94;;;14.24;80.03
10115;BME280;5097;43.260;27.812;2023-05-19T01:46:07;99893.56;;;14.23;79.84
10115;BME280;5097;43.260;27.812;2023-05-19T01:48:53;99898.41;;;14.29;79.97
10115;BME280;5097;43.260;27.812;2023-05-19T01:51:37;99887.31;;;14.24;80.52
10115;BME280;5097;43.260;27.812;2023-05-19T01:54:21;99893.09;;;14.29;80.46
10115;BME280;5097;43.260;27.812;2023-05-19T01:57:11;99879.69;;;14.06;81.37
10115;BME280;5097;43.260;27.812;2023-05-19T02:00:02;99865.03;;;14.01;81.11
10115;BME280;5097;43.260;27.812;2023-05-19T02:02:59;99908.44;;;14.25;81.00
10115;BME280;5097;43.260;27.812;2023-05-19T02:05:53;99904.47;;;14.31;80.59
10115;BME280;5097;43.260;27.812;2023-05-19T02:08:42;99906.25;;;14.44;79.84
10115;BME280;5097;43.260;27.812;2023-05-19T02:11:35;99902.47;;;14.59;78.88
10115;BME280;5097;43.260;27.812;2023-05-19T02:14:29;99913.41;;;14.67;77.36
10115;BME280;5097;43.260;27.812;2023-05-19T02:17:14;99912.44;;;14.93;76.09
10115;BME280;5097;43.260;27.812;2023-05-19T02:20:01;99908.22;;;15.01;75.29
10115;BME280;5097;43.260;27.812;2023-05-19T02:22:47;99914.94;;;15.07;74.91
10115;BME280;5097;43.260;27.812;2023-05-19T02:25:32;99926.41;;;15.07;74.57
10115;BME280;5097;43.260;27.812;2023-05-19T02:28:16;99923.25;;;15.02;74.35
10115;BME280;5097;43.260;27.812;2023-05-19T02:31:00;99921.81;;;15.09;73.93
10115;BME280;5097;43.260;27.812;2023-05-19T02:33:44;99923.78;;;15.19;73.53
10115;BME280;5097;43.260;27.812;2023-05-19T02:39:17;99918.19;;;15.11;73.23
10115;BME280;5097;43.260;27.812;2023-05-19T02:42:01;99917.72;;;15.17;72.75
10115;BME280;5097;43.260;27.812;2023-05-19T02:44:48;99927.41;;;15.18;72.31
10115;BME280;5097;43.260;27.812;2023-05-19T02:47:32;99931.28;;;15.14;72.17
10115;BME280;5097;43.260;27.812;2023-05-19T02:50:18;99925.09;;;15.13;71.97
10115;BME280;5097;43.260;27.812;2023-05-19T02:53:04;99930.78;;;15.20;71.54
10115;BME280;5097;43.260;27.812;2023-05-19T02:55:49;99937.81;;;15.21;71.42
10115;BME280;5097;43.260;27.812;2023-05-19T02:58:33;99932.25;;;15.24;70.89
10115;BME280;5097;43.260;27.812;2023-05-19T03:01:17;99933.94;;;15.14;71.39
10115;BME280;5097;43.260;27.812;2023-05-19T03:04:03;99928.13;;;15.20;70.86
10115;BME280;5097;43.260;27.812;2023-05-19T03:06:47;99918.22;;;14.86;71.77
10115;BME280;5097;43.260;27.812;2023-05-19T03:09:31;99939.47;;;15.11;71.20
10115;BME280;5097;43.260;27.812;2023-05-19T03:12:16;99928.28;;;14.94;71.37
10115;BME280;5097;43.260;27.812;2023-05-19T03:15:00;99925.47;;;15.20;70.60
10115;BME280;5097;43.260;27.812;2023-05-19T03:17:46;99945.28;;;15.04;70.73
10115;BME280;5097;43.260;27.812;2023-05-19T03:20:30;99940.75;;;15.29;69.99
10115;BME280;5097;43.260;27.812;2023-05-19T03:23:15;99954.75;;;15.20;70.25
10115;BME280;5097;43.260;27.812;2023-05-19T03:25:59;99960.19;;;15.18;70.32
10115;BME280;5097;43.260;27.812;2023-05-19T03:28:44;99955.72;;;14.70;71.96
10115;BME280;5097;43.260;27.812;2023-05-19T03:31:28;99958.97;;;14.87;72.26
10115;BME280;5097;43.260;27.812;2023-05-19T03:34:14;99952.94;;;14.72;71.75
10115;BME280;5097;43.260;27.812;2023-05-19T03:36:58;99965.69;;;14.80;71.79
10115;BME280;5097;43.260;27.812;2023-05-19T03:39:42;99976.50;;;15.14;70.05
10115;BME280;5097;43.260;27.812;2023-05-19T03:42:26;99979.66;;;14.95;70.38
10115;BME280;5097;43.260;27.812;2023-05-19T03:45:11;99980.16;;;15.24;69.16
10115;BME280;5097;43.260;27.812;2023-05-19T03:47:58;99976.72;;;15.11;69.45
10115;BME280;5097;43.260;27.812;2023-05-19T03:51:05;99981.03;;;15.24;68.91
10115;BME280;5097;43.260;27.812;2023-05-19T03:53:50;99985.63;;;14.98;69.37
10115;BME280;5097;43.260;27.812;2023-05-19T03:56:38;99976.16;;;14.94;69.56
10115;BME280;5097;43.260;27.812;2023-05-19T03:59:29;99986.16;;;15.15;68.56
10115;BME280;5097;43.260;27.812;2023-05-19T04:02:15;99990.09;;;15.33;68.16
10115;BME280;5097;43.260;27.812;2023-05-19T04:05:03;99985.28;;;15.27;68.24
10115;BME280;5097;43.260;27.812;2023-05-19T04:07:47;99981.44;;;15.42;68.25
10115;BME280;5097;43.260;27.812;2023-05-19T04:10:32;99972.25;;;15.47;67.65
10115;BME280;5097;43.260;27.812;2023-05-19T04:13:16;99979.66;;;15.54;66.62
10115;BME280;5097;43.260;27.812;2023-05-19T04:16:00;99976.03;;;15.55;66.17
10115;BME280;5097;43.260;27.812;2023-05-19T04:18:45;99984.16;;;15.76;65.30
10115;BME280;5097;43.260;27.812;2023-05-19T04:21:29;99981.81;;;15.96;65.34
10115;BME280;5097;43.260;27.812;2023-05-19T04:24:13;99988.34;;;15.81;64.97
10115;BME280;5097;43.260;27.812;2023-05-19T04:26:58;99978.06;;;15.87;64.51
10115;BME280;5097;43.260;27.812;2023-05-19T04:29:44;99979.63;;;16.13;64.12
10115;BME280;5097;43.260;27.812;2023-05-19T04:32:30;99987.75;;;16.11;64.26
10115;BME280;5097;43.260;27.812;2023-05-19T04:35:16;99984.22;;;15.99;64.53
10115;BME280;5097;43.260;27.812;2023-05-19T04:38:02;99986.19;;;16.20;64.29
10115;BME280;5097;43.260;27.812;2023-05-19T04:40:48;99995.63;;;16.47;63.42
10115;BME280;5097;43.260;27.812;2023-05-19T04:43:33;99991.88;;;16.38;63.57
10115;BME280;5097;43.260;27.812;2023-05-19T04:46:18;99996.34;;;16.37;63.36
10115;BME280;5097;43.260;27.812;2023-05-19T04:49:11;100000.00;;;16.36;62.96
10115;BME280;5097;43.260;27.812;2023-05-19T04:51:56;99999.00;;;16.49;62.90
10115;BME280;5097;43.260;27.812;2023-05-19T04:54:45;99999.72;;;16.62;62.59
10115;BME280;5097;43.260;27.812;2023-05-19T04:57:29;100007.19;;;16.80;62.05
10115;BME280;5097;43.260;27.812;2023-05-19T05:00:14;100003.44;;;16.94;61.60
10115;BME280;5097;43.260;27.812;2023-05-19T05:03:08;100014.00;;;16.95;60.59
10115;BME280;5097;43.260;27.812;2023-05-19T05:05:54;100008.91;;;16.81;61.30
10115;BME280;5097;43.260;27.812;2023-05-19T05:08:39;100006.84;;;17.28;59.96
10115;BME280;5097;43.260;27.812;2023-05-19T05:11:24;100009.19;;;17.42;59.34
10115;BME280;5097;43.260;27.812;2023-05-19T05:14:10;100013.63;;;17.74;58.51
10115;BME280;5097;43.260;27.812;2023-05-19T05:16:56;99990.72;;;17.51;58.03
10115;BME280;5097;43.260;27.812;2023-05-19T05:19:41;100009.59;;;18.01;57.60
10115;BME280;5097;43.260;27.812;2023-05-19T05:22:25;100006.69;;;17.83;57.28
10115;BME280;5097;43.260;27.812;2023-05-19T05:25:13;100016.50;;;18.25;56.57
10115;BME280;5097;43.260;27.812;2023-05-19T05:27:58;100012.47;;;18.09;56.35
10115;BME280;5097;43.260;27.812;2023-05-19T05:30:50;100025.75;;;18.21;54.90
10115;BME280;5097;43.260;27.812;2023-05-19T05:33:34;100025.03;;;18.50;54.75
10115;BME280;5097;43.260;27.812;2023-05-19T05:36:19;100023.81;;;18.64;54.33
10115;BME280;5097;43.260;27.812;2023-05-19T05:39:03;100032.34;;;18.48;54.47
10115;BME280;5097;43.260;27.812;2023-05-19T05:41:48;100033.91;;;18.91;53.24
10115;BME280;5097;43.260;27.812;2023-05-19T05:44:34;100033.91;;;18.91;52.91
10115;BME280;5097;43.260;27.812;2023-05-19T05:47:20;100021.97;;;18.64;53.40
10115;BME280;5097;43.260;27.812;2023-05-19T05:50:07;99918.22;;;18.07;52.93
10115;BME280;5097;43.260;27.812;2023-05-19T05:52:52;100040.22;;;18.90;52.83
10115;BME280;5097;43.260;27.812;2023-05-19T05:55:41;100049.97;;;18.91;52.67
10115;BME280;5097;43.260;27.812;2023-05-19T05:58:27;100055.81;;;19.35;52.16
10115;BME280;5097;43.260;27.812;2023-05-19T06:01:14;100068.34;;;19.45;52.24
10115;BME280;5097;43.260;27.812;2023-05-19T06:03:59;100054.41;;;19.51;52.31
10115;BME280;5097;43.260;27.812;2023-05-19T06:06:44;100051.00;;;19.49;50.92
10115;BME280;5097;43.260;27.812;2023-05-19T06:09:33;100050.31;;;19.56;51.07
10115;BME280;5097;43.260;27.812;2023-05-19T06:12:18;100040.69;;;20.03;49.79
10115;BME280;5097;43.260;27.812;2023-05-19T06:15:06;100042.69;;;19.91;49.61
10115;BME280;5097;43.260;27.812;2023-05-19T06:18:26;100048.25;;;20.17;49.25
10115;BME280;5097;43.260;27.812;2023-05-19T06:21:10;100043.63;;;20.09;49.28
10115;BME280;5097;43.260;27.812;2023-05-19T06:23:56;100049.03;;;20.37;48.93
10115;BME280;5097;43.260;27.812;2023-05-19T06:26:41;100054.38;;;20.47;47.56
10115;BME280;5097;43.260;27.812;2023-05-19T06:29:25;100066.09;;;20.46;47.11
10115;BME280;5097;43.260;27.812;2023-05-19T06:32:12;100058.31;;;20.53;46.97
10115;BME280;5097;43.260;27.812;2023-05-19T06:34:57;100061.41;;;20.58;46.44
10115;BME280;5097;43.260;27.812;2023-05-19T06:37:41;100065.78;;;20.59;46.11
10115;BME280;5097;43.260;27.812;2023-05-19T06:40:25;100041.00;;;20.65;46.02
10115;BME280;5097;43.260;27.812;2023-05-19T06:43:10;100052.75;;;20.92;45.23
10115;BME280;5097;43.260;27.812;2023-05-19T06:46:07;100044.75;;;21.28;44.05
10115;BME280;5097;43.260;27.812;2023-05-19T06:48:54;100059.94;;;21.91;44.08
10115;BME280;5097;43.260;27.812;2023-05-19T06:51:41;100061.72;;;21.47;43.67
10115;BME280;5097;43.260;27.812;2023-05-19T06:54:25;100056.09;;;21.40;43.27
10115;BME280;5097;43.260;27.812;2023-05-19T06:57:11;100066.72;;;21.77;43.96
10115;BME280;5097;43.260;27.812;2023-05-19T06:59:55;100055.41;;;21.92;42.83
10115;BME280;5097;43.260;27.812;2023-05-19T07:02:41;100070.84;;;21.90;43.95
10115;BME280;5097;43.260;27.812;2023-05-19T07:05:26;100070.09;;;21.80;43.15
10115;BME280;5097;43.260;27.812;2023-05-19T07:08:12;100086.94;;;22.08;43.37
10115;BME280;5097;43.260;27.812;2023-05-19T07:10:57;100089.91;;;22.23;43.33
10115;BME280;5097;43.260;27.812;2023-05-19T07:13:43;100076.06;;;22.18;41.92
10115;BME280;5097;43.260;27.812;2023-05-19T07:16:31;100068.94;;;22.08;42.30
10115;BME280;5097;43.260;27.812;2023-05-19T07:19:15;100065.97;;;22.12;42.42
10115;BME280;5097;43.260;27.812;2023-05-19T07:22:03;100085.56;;;22.04;41.39
10115;BME280;5097;43.260;27.812;2023-05-19T07:24:47;100086.78;;;22.09;41.44
10115;BME280;5097;43.260;27.812;2023-05-19T07:27:33;100081.88;;;22.31;41.68
10115;BME280;5097;43.260;27.812;2023-05-19T07:30:17;100077.91;;;22.35;41.47
10115;BME280;5097;43.260;27.812;2023-05-19T07:33:01;100082.38;;;22.61;41.90
10115;BME280;5097;43.260;27.812;2023-05-19T07:35:45;100081.88;;;22.31;41.42
10115;BME280;5097;43.260;27.812;2023-05-19T07:38:31;100085.97;;;22.70;41.14
10115;BME280;5097;43.260;27.812;2023-05-19T07:41:16;100057.72;;;22.74;40.74
10115;BME280;5097;43.260;27.812;2023-05-19T07:44:00;100092.97;;;22.54;40.81
10115;BME280;5097;43.260;27.812;2023-05-19T07:46:49;100087.72;;;22.87;40.85
10115;BME280;5097;43.260;27.812;2023-05-19T07:49:33;100082.91;;;23.07;40.02
10115;BME280;5097;43.260;27.812;2023-05-19T07:52:17;100075.53;;;23.09;40.32
10115;BME280;5097;43.260;27.812;2023-05-19T07:55:03;100099.19;;;23.40;40.30
10115;BME280;5097;43.260;27.812;2023-05-19T07:57:47;100078.44;;;23.24;39.01
10115;BME280;5097;43.260;27.812;2023-05-19T08:00:31;100066.69;;;23.42;39.92
10115;BME280;5097;43.260;27.812;2023-05-19T08:03:15;100071.94;;;23.76;39.56
10115;BME280;5097;43.260;27.812;2023-05-19T08:06:00;100090.47;;;23.88;38.60
10115;BME280;5097;43.260;27.812;2023-05-19T08:08:44;100080.34;;;24.15;37.72
10115;BME280;5097;43.260;27.812;2023-05-19T08:11:30;100101.25;;;23.88;37.77
10115;BME280;5097;43.260;27.812;2023-05-19T08:14:14;100067.53;;;23.67;36.87
10115;BME280;5097;43.260;27.812;2023-05-19T08:16:59;100089.63;;;24.04;35.73
10115;BME280;5097;43.260;27.812;2023-05-19T08:19:43;100083.34;;;24.28;34.61
10115;BME280;5097;43.260;27.812;2023-05-19T08:22:27;100082.38;;;24.13;35.07
10115;BME280;5097;43.260;27.812;2023-05-19T08:25:11;100091.75;;;24.41;34.47
10115;BME280;5097;43.260;27.812;2023-05-19T08:27:57;100091.34;;;24.77;34.51
10115;BME280;5097;43.260;27.812;2023-05-19T08:30:40;100095.69;;;24.87;34.15
10115;BME280;5097;43.260;27.812;2023-05-19T08:33:25;100103.06;;;24.45;35.41
10115;BME280;5097;43.260;27.812;2023-05-19T08:36:09;100082.50;;;24.36;35.20
10115;BME280;5097;43.260;27.812;2023-05-19T08:38:53;100103.53;;;24.57;35.41
10115;BME280;5097;43.260;27.812;2023-05-19T08:41:37;100122.91;;;24.77;34.39
10115;BME280;5097;43.260;27.812;2023-05-19T08:44:22;100060.50;;;24.55;34.32
10115;BME280;5097;43.260;27.812;2023-05-19T08:47:06;100091.88;;;24.73;34.43
10115;BME280;5097;43.260;27.812;2023-05-19T08:50:00;100092.69;;;25.45;33.50
10115;BME280;5097;43.260;27.812;2023-05-19T08:52:50;100084.88;;;24.87;33.43
10115;BME280;5097;43.260;27.812;2023-05-19T08:55:42;100097.38;;;24.88;33.91
10115;BME280;5097;43.260;27.812;2023-05-19T08:58:26;100083.44;;;25.62;33.06
10115;BME280;5097;43.260;27.812;2023-05-19T09:01:13;100068.88;;;25.63;33.13
10115;BME280;5097;43.260;27.812;2023-05-19T09:03:58;100083.41;;;26.08;31.97
10115;BME280;5097;43.260;27.812;2023-05-19T09:06:43;99982.53;;;25.91;31.76
10115;BME280;5097;43.260;27.812;2023-05-19T09:09:28;100058.22;;;26.23;32.03
10115;BME280;5097;43.260;27.812;2023-05-19T09:12:12;100090.41;;;26.03;31.45
10115;BME280;5097;43.260;27.812;2023-05-19T09:14:57;100086.66;;;25.34;31.19
10115;BME280;5097;43.260;27.812;2023-05-19T09:17:42;100096.16;;;25.76;30.69
10115;BME280;5097;43.260;27.812;2023-05-19T09:20:29;100091.72;;;25.99;30.54
10115;BME280;5097;43.260;27.812;2023-05-19T09:23:15;100096.22;;;24.74;31.75
10115;BME280;5097;43.260;27.812;2023-05-19T09:26:01;100094.38;;;24.10;32.17
10115;BME280;5097;43.260;27.812;2023-05-19T09:28:46;100069.75;;;24.61;32.35
10115;BME280;5097;43.260;27.812;2023-05-19T09:31:31;100106.50;;;24.87;31.57
10115;BME280;5097;43.260;27.812;2023-05-19T09:34:17;100091.69;;;24.58;31.73
10115;BME280;5097;43.260;27.812;2023-05-19T09:37:01;100092.47;;;24.19;33.01
10115;BME280;5097;43.260;27.812;2023-05-19T09:39:45;100116.91;;;24.34;33.33
10115;BME280;5097;43.260;27.812;2023-05-19T09:42:36;100105.22;;;24.50;32.86
10115;BME280;5097;43.260;27.812;2023-05-19T09:45:20;100101.22;;;24.93;31.99
10115;BME280;5097;43.260;27.812;2023-05-19T09:48:05;100094.53;;;25.13;31.80
10115;BME280;5097;43.260;27.812;2023-05-19T09:50:50;100093.06;;;25.41;31.54
10115;BME280;5097;43.260;27.812;2023-05-19T09:53:35;100083.56;;;25.46;31.75
10115;BME280;5097;43.260;27.812;2023-05-19T09:56:21;100093.38;;;25.85;31.48
10115;BME280;5097;43.260;27.812;2023-05-19T09:59:07;100089.69;;;26.01;30.58
10115;BME280;5097;43.260;27.812;2023-05-19T10:01:53;100105.00;;;26.62;29.91
10115;BME280;5097;43.260;27.812;2023-05-19T10:04:38;100090.47;;;25.71;30.82
10115;BME280;5097;43.260;27.812;2023-05-19T10:07:24;100101.44;;;25.93;30.73
10115;BME280;5097;43.260;27.812;2023-05-19T10:10:11;100097.97;;;25.38;31.19
10115;BME280;5097;43.260;27.812;2023-05-19T10:12:55;100087.66;;;25.02;31.80
10115;BME280;5097;43.260;27.812;2023-05-19T10:15:41;100122.25;;;25.15;31.38
10115;BME280;5097;43.260;27.812;2023-05-19T10:18:41;100108.00;;;25.21;31.10
10115;BME280;5097;43.260;27.812;2023-05-19T10:21:25;100113.69;;;24.47;32.46
10115;BME280;5097;43.260;27.812;2023-05-19T10:24:10;100088.00;;;25.30;32.06
10115;BME280;5097;43.260;27.812;2023-05-19T10:26:58;100098.72;;;25.55;31.89
10115;BME280;5097;43.260;27.812;2023-05-19T10:29:48;100093.28;;;25.55;30.70
10115;BME280;5097;43.260;27.812;2023-05-19T10:32:34;100112.50;;;25.37;30.62
10115;BME280;5097;43.260;27.812;2023-05-19T10:38:40;100100.81;;;24.73;32.41
10115;BME280;5097;43.260;27.812;2023-05-19T10:41:34;100084.19;;;24.37;32.76
10115;BME280;5097;43.260;27.812;2023-05-19T10:44:32;100101.41;;;24.27;32.98
10115;BME280;5097;43.260;27.812;2023-05-19T10:47:22;100114.38;;;24.40;32.93
10115;BME280;5097;43.260;27.812;2023-05-19T10:50:07;100085.97;;;24.61;32.05
10115;BME280;5097;43.260;27.812;2023-05-19T10:52:55;100077.03;;;24.69;32.18
10115;BME280;5097;43.260;27.812;2023-05-19T10:55:49;100072.59;;;24.76;32.19
10115;BME280;5097;43.260;27.812;2023-05-19T10:58:49;100093.31;;;25.93;31.46
10115;BME280;5097;43.260;27.812;2023-05-19T11:01:34;100042.47;;;25.19;31.90
10115;BME280;5097;43.260;27.812;2023-05-19T11:04:38;100087.84;;;25.40;30.91
10115;BME280;5097;43.260;27.812;2023-05-19T11:07:22;100088.53;;;25.02;31.41
10115;BME280;5097;43.260;27.812;2023-05-19T11:10:07;100073.16;;;24.63;31.34
10115;BME280;5097;43.260;27.812;2023-05-19T11:12:51;100105.81;;;24.93;31.34
10115;BME280;5097;43.260;27.812;2023-05-19T11:15:36;100115.75;;;24.92;31.06
10115;BME280;5097;43.260;27.812;2023-05-19T11:18:20;100093.38;;;25.07;30.47
10115;BME280;5097;43.260;27.812;2023-05-19T11:21:04;100091.16;;;25.65;30.35
10115;BME280;5097;43.260;27.812;2023-05-19T11:23:50;100105.59;;;25.26;30.43
10115;BME280;5097;43.260;27.812;2023-05-19T11:26:41;100090.41;;;25.25;29.94
10115;BME280;5097;43.260;27.812;2023-05-19T11:29:25;100094.91;;;25.09;29.69
10115;BME280;5097;43.260;27.812;2023-05-19T11:32:11;100068.78;;;24.62;29.44
10115;BME280;5097;43.260;27.812;2023-05-19T11:34:56;100105.88;;;25.08;28.62
10115;BME280;5097;43.260;27.812;2023-05-19T11:37:41;100082.03;;;25.12;29.03
10115;BME280;5097;43.260;27.812;2023-05-19T11:40:25;100089.91;;;24.90;28.98
10115;BME280;5097;43.260;27.812;2023-05-19T11:43:09;100071.31;;;24.95;29.60
10115;BME280;5097;43.260;27.812;2023-05-19T11:45:53;100078.25;;;25.29;28.89
10115;BME280;5097;43.260;27.812;2023-05-19T11:48:39;100084.81;;;25.58;29.01
10115;BME280;5097;43.260;27.812;2023-05-19T11:51:23;100068.53;;;25.12;29.48
10115;BME280;5097;43.260;27.812;2023-05-19T11:54:08;100071.28;;;25.58;29.38
10115;BME280;5097;43.260;27.812;2023-05-19T11:56:53;100063.25;;;26.26;28.48
10115;BME280;5097;43.260;27.812;2023-05-19T11:59:37;100078.34;;;26.05;28.08
10115;BME280;5097;43.260;27.812;2023-05-19T12:02:25;100067.56;;;25.59;28.59
10115;BME280;5097;43.260;27.812;2023-05-19T12:05:18;100055.72;;;25.98;28.61
10115;BME280;5097;43.260;27.812;2023-05-19T12:08:03;100053.69;;;26.00;28.11
10115;BME280;5097;43.260;27.812;2023-05-19T12:10:48;100064.88;;;25.59;28.73
10115;BME280;5097;43.260;27.812;2023-05-19T12:13:32;100060.50;;;25.26;28.43
10115;BME280;5097;43.260;27.812;2023-05-19T12:16:19;100060.22;;;25.45;28.15
10115;BME280;5097;43.260;27.812;2023-05-19T12:19:04;100074.28;;;25.63;27.77
10115;BME280;5097;43.260;27.812;2023-05-19T12:21:50;100060.09;;;25.61;29.17
10115;BME280;5097;43.260;27.812;2023-05-19T12:24:34;100064.38;;;26.17;28.08
10115;BME280;5097;43.260;27.812;2023-05-19T12:27:21;100058.78;;;26.63;26.66
10115;BME280;5097;43.260;27.812;2023-05-19T12:30:06;100061.22;;;26.43;27.54
10115;BME280;5097;43.260;27.812;2023-05-19T12:32:52;100077.09;;;26.46;27.24
10115;BME280;5097;43.260;27.812;2023-05-19T12:35:36;100063.53;;;25.93;27.33
10115;BME280;5097;43.260;27.812;2023-05-19T12:38:22;100074.16;;;26.03;27.32
10115;BME280;5097;43.260;27.812;2023-05-19T12:41:06;100062.75;;;25.69;28.64
10115;BME280;5097;43.260;27.812;2023-05-19T12:43:50;100034.84;;;26.52;27.08
10115;BME280;5097;43.260;27.812;2023-05-19T12:46:33;100073.50;;;25.77;26.38
10115;BME280;5097;43.260;27.812;2023-05-19T12:49:17;100063.16;;;26.04;26.46
10115;BME280;5097;43.260;27.812;2023-05-19T12:52:02;100054.47;;;26.24;26.12
10115;BME280;5097;43.260;27.812;2023-05-19T12:54:58;100065.84;;;26.04;26.84
10115;BME280;5097;43.260;27.812;2023-05-19T12:57:46;100060.19;;;25.91;26.52
10115;BME280;5097;43.260;27.812;2023-05-19T13:00:32;100079.41;;;26.34;25.93
10115;BME280;5097;43.260;27.812;2023-05-19T13:03:18;100075.16;;;25.79;27.07
10115;BME280;5097;43.260;27.812;2023-05-19T13:06:03;100063.59;;;26.08;27.20
10115;BME280;5097;43.260;27.812;2023-05-19T13:08:47;100072.97;;;25.97;26.50
10115;BME280;5097;43.260;27.812;2023-05-19T13:11:32;100040.84;;;25.33;27.68
10115;BME280;5097;43.260;27.812;2023-05-19T13:14:16;100066.59;;;25.52;27.33
10115;BME280;5097;43.260;27.812;2023-05-19T13:17:01;100094.81;;;25.57;27.12
10115;BME280;5097;43.260;27.812;2023-05-19T13:19:45;100071.75;;;25.38;26.89
10115;BME280;5097;43.260;27.812;2023-05-19T13:22:29;100072.66;;;25.54;27.63
10115;BME280;5097;43.260;27.812;2023-05-19T13:25:13;100077.16;;;25.38;27.57
10115;BME280;5097;43.260;27.812;2023-05-19T13:27:59;100073.81;;;25.36;27.20
10115;BME280;5097;43.260;27.812;2023-05-19T13:30:46;100053.81;;;25.46;27.82
10115;BME280;5097;43.260;27.812;2023-05-19T13:33:31;100072.13;;;25.82;28.03
10115;BME280;5097;43.260;27.812;2023-05-19T13:36:15;100077.75;;;25.95;26.77
10115;BME280;5097;43.260;27.812;2023-05-19T13:38:59;100075.22;;;25.93;26.14
10115;BME280;5097;43.260;27.812;2023-05-19T13:41:43;100073.06;;;26.27;26.04
10115;BME280;5097;43.260;27.812;2023-05-19T13:44:29;100065.75;;;26.13;26.07
10115;BME280;5097;43.260;27.812;2023-05-19T13:47:13;100100.66;;;26.07;26.27
10115;BME280;5097;43.260;27.812;2023-05-19T13:49:57;100074.41;;;25.70;26.38
10115;BME280;5097;43.260;27.812;2023-05-19T13:52:41;100037.06;;;25.65;26.38
10115;BME280;5097;43.260;27.812;2023-05-19T13:55:26;100073.88;;;26.13;26.26
10115;BME280;5097;43.260;27.812;2023-05-19T13:58:11;100064.38;;;26.17;26.74
10115;BME280;5097;43.260;27.812;2023-05-19T14:00:57;100065.75;;;26.57;26.13
10115;BME280;5097;43.260;27.812;2023-05-19T14:03:41;100073.75;;;27.10;25.50
10115;BME280;5097;43.260;27.812;2023-05-19T14:06:26;100064.94;;;26.72;25.77
10115;BME280;5097;43.260;27.812;2023-05-19T14:09:10;100048.97;;;26.62;25.31
10115;BME280;5097;43.260;27.812;2023-05-19T14:11:54;100075.13;;;26.70;25.53
10115;BME280;5097;43.260;27.812;2023-05-19T14:14:38;100082.88;;;26.58;25.01
10115;BME280;5097;43.260;27.812;2023-05-19T14:17:25;100058.56;;;26.20;25.34
10115;BME280;5097;43.260;27.812;2023-05-19T14:20:10;100081.00;;;26.73;25.20
10115;BME280;5097;43.260;27.812;2023-05-19T14:22:54;100075.81;;;26.04;25.89
10115;BME280;5097;43.260;27.812;2023-05-19T14:25:38;100049.69;;;26.56;25.54
10115;BME280;5097;43.260;27.812;2023-05-19T14:28:22;100081.94;;;26.81;25.18
10115;BME280;5097;43.260;27.812;2023-05-19T14:31:10;100066.59;;;26.28;25.48
10115;BME280;5097;43.260;27.812;2023-05-19T14:33:55;100097.06;;;26.30;25.56
10115;BME280;5097;43.260;27.812;2023-05-19T14:36:39;100080.75;;;26.83;25.18
10115;BME280;5097;43.260;27.812;2023-05-19T14:39:23;100080.53;;;26.70;25.25
10115;BME280;5097;43.260;27.812;2023-05-19T14:42:07;100080.28;;;26.50;25.22